Welcome to our new website - Welkom op onze vernieuwde website - Bienvenue sur notre nouveau site web - Willkommen auf unserer neuen Website


Onweer radar Meer informatie blitzortung!


Regen radar Meer informatie rain snow radar


Andere websites:

Onze vorige site

Leuven Template



METAR rapporten vliegvelden

   
EHGG - Leeuwarden
Gewijzigd: 15-07-2020 00:25
Mist, Helder  
Mist, Helder  
   Wind: Westen 3.7 km/h
Wind: Westen 3.7 km/h
Temperatuur: 10°C
Dauwpunt: 9°C
Vochtigheid: 94%
Barometer: 1013 hPa
Bewolking: Helder
Zicht: 0 km
Bewolking: Helder
EHGG 142225Z AUTO 26002KT 0350 R23/0375D FG NCD 10/09 Q1013
EHGG - Terschelling
Gewijzigd: 15-07-2020 00:25
Mist, Helder  
Mist, Helder  
   Wind: Westen 3.7 km/h
Wind: Westen 3.7 km/h
Temperatuur: 10°C
Dauwpunt: 9°C
Vochtigheid: 94%
Barometer: 1013 hPa
Bewolking: Helder
Zicht: 0 km
Bewolking: Helder
EHGG 142225Z AUTO 26002KT 0350 R23/0375D FG NCD 10/09 Q1013
EHAM - Amsterdam
Gewijzigd: 15-07-2020 00:55
Licht bewolkt  
Licht bewolkt  
   Wind: WNW 7.4 km/h
Wind: WNW 7.4 km/h
Temperatuur: 12°C
Dauwpunt: 10°C
Vochtigheid: 88%
Barometer: 1014 hPa
Bewolking: Licht bewolkt
Zicht: meer dan 10 km
Bewolking: Licht bewolkt 2100 ft
EHAM 142255Z 29004KT 9999 FEW021 12/10 Q1014 NOSIG
EHBK - Maastricht
Gewijzigd: 15-07-2020 00:55
Bewolking  
Bewolking  
   Wind: NW 5.6 km/h
Wind: NW 5.6 km/h
Temperatuur: 14°C
Dauwpunt: 13°C
Vochtigheid: 94%
Barometer: 1014 hPa
Bewolking: Bewolking
Zicht: meer dan 10 km
Bewolking: Licht bewolkt 800 ft,
Bewolking 4500 ft
EHBK 142255Z AUTO 32003KT 270V350 9999 FEW008 OVC045 14/13 Q1014
  

Script ontwikkeld door  Saratoga-weather.org Aangepast voor de template door  Weerstation Leuven

U vindt ons ook hier:

European Weather Network

Weather Underground

AWEKAS

Apparatuur in gebruik:

Weerstation
Davis VP2

Weerprogramma
Cumulus

Davis VP2

Cumulus